createdAt,value
2019-02-08T00:01:34.621Z,3.30
2019-02-08T00:04:04.971Z,3.30
2019-02-08T00:06:33.825Z,3.30
2019-02-08T00:09:04.219Z,3.20
2019-02-08T00:11:38.228Z,3.20
2019-02-08T00:14:08.918Z,3.20
2019-02-08T00:16:40.407Z,3.20
2019-02-08T00:19:15.183Z,3.30
2019-02-08T00:21:39.456Z,3.30
2019-02-08T00:24:10.466Z,3.30
2019-02-08T00:26:39.196Z,3.20
2019-02-08T00:29:08.378Z,3.20
2019-02-08T00:31:37.078Z,3.20
2019-02-08T00:34:06.323Z,3.10
2019-02-08T00:36:34.971Z,3.10
2019-02-08T00:39:05.760Z,3.10
2019-02-08T00:41:34.485Z,3.10
2019-02-08T00:44:03.996Z,3.10
2019-02-08T00:46:32.626Z,3.10
2019-02-08T00:49:01.366Z,3.10
2019-02-08T00:51:29.947Z,3.20
2019-02-08T00:53:58.831Z,3.30
2019-02-08T00:56:27.575Z,3.30
2019-02-08T00:58:59.225Z,3.30
2019-02-08T01:01:28.302Z,3.30
2019-02-08T01:03:57.400Z,3.30
2019-02-08T01:06:26.781Z,3.30
2019-02-08T01:08:55.585Z,3.30
2019-02-08T01:11:24.261Z,3.30
2019-02-08T01:13:54.225Z,3.20
2019-02-08T01:16:23.260Z,3.20
2019-02-08T01:18:51.899Z,3.20
2019-02-08T01:21:20.601Z,3.20
2019-02-08T01:23:49.407Z,3.20
2019-02-08T01:26:18.083Z,3.20
2019-02-08T01:28:46.781Z,3.20
2019-02-08T01:31:15.378Z,3.10
2019-02-08T01:33:44.323Z,3.10
2019-02-08T01:36:14.685Z,3.00
2019-02-08T01:38:45.702Z,3.00
2019-02-08T01:41:14.532Z,3.00
2019-02-08T01:43:44.875Z,3.00
2019-02-08T01:46:13.703Z,3.00
2019-02-08T01:48:42.447Z,3.10
2019-02-08T01:51:16.083Z,3.10
2019-02-08T01:53:48.875Z,3.10
2019-02-08T01:56:17.776Z,3.00
2019-02-08T01:58:46.424Z,3.00
2019-02-08T02:01:15.126Z,3.00
2019-02-08T02:03:43.800Z,2.90
2019-02-08T02:06:12.692Z,2.90
2019-02-08T02:08:41.816Z,2.80
2019-02-08T02:11:10.484Z,2.90
2019-02-08T02:13:39.194Z,2.90
2019-02-08T02:16:15.404Z,2.80
2019-02-08T02:18:44.154Z,2.90
2019-02-08T02:21:13.228Z,2.90
2019-02-08T02:23:41.864Z,2.90
2019-02-08T02:26:10.604Z,2.90
2019-02-08T02:28:39.332Z,2.90
2019-02-08T02:31:08.365Z,2.80
2019-02-08T02:33:37.384Z,2.90
2019-02-08T02:36:07.938Z,2.90
2019-02-08T02:38:36.638Z,2.90
2019-02-08T02:41:05.706Z,3.00
2019-02-08T02:43:34.407Z,3.10
2019-02-08T02:46:03.114Z,3.10
2019-02-08T02:48:31.797Z,3.10
2019-02-08T02:51:00.422Z,3.20
2019-02-08T02:53:30.189Z,3.20
2019-02-08T02:55:58.930Z,3.20
2019-02-08T02:58:28.293Z,3.20
2019-02-08T03:00:56.956Z,3.20
2019-02-08T03:03:25.633Z,3.10
2019-02-08T03:05:54.327Z,3.10
2019-02-08T03:08:23.041Z,3.10
2019-02-08T03:10:52.129Z,3.00
2019-02-08T03:13:20.830Z,3.00
2019-02-08T03:15:49.719Z,3.00
2019-02-08T03:18:18.469Z,3.00
2019-02-08T03:20:47.186Z,3.00
2019-02-08T03:23:15.894Z,3.10
2019-02-08T03:25:44.738Z,3.10
2019-02-08T03:28:13.755Z,3.00
2019-02-08T03:30:56.048Z,3.00
2019-02-08T03:33:24.822Z,3.00
2019-02-08T03:35:53.755Z,3.10
2019-02-08T03:38:22.492Z,3.00
2019-02-08T03:40:51.345Z,3.00
2019-02-08T03:43:20.248Z,3.00
2019-02-08T03:45:50.575Z,3.00
2019-02-08T03:48:19.271Z,3.00
2019-02-08T03:50:53.897Z,3.00
2019-02-08T03:53:22.595Z,3.00
2019-02-08T03:55:58.107Z,3.00
2019-02-08T03:58:21.583Z,3.00
2019-02-08T04:00:52.164Z,3.00
2019-02-08T04:03:20.868Z,3.00
2019-02-08T04:05:49.620Z,3.00
2019-02-08T04:08:18.329Z,3.00
2019-02-08T04:10:47.030Z,3.00
2019-02-08T04:13:15.921Z,3.00
2019-02-08T04:15:45.082Z,3.00
2019-02-08T04:18:14.183Z,3.00
2019-02-08T04:20:43.009Z,3.00
2019-02-08T04:23:11.616Z,3.00
2019-02-08T04:25:40.307Z,3.00
2019-02-08T04:28:09.071Z,3.10
2019-02-08T04:30:37.760Z,3.10
2019-02-08T04:33:06.464Z,3.10
2019-02-08T04:35:35.265Z,3.10
2019-02-08T04:38:04.479Z,3.10
2019-02-08T04:40:33.365Z,3.10
2019-02-08T04:43:02.157Z,3.10
2019-02-08T04:45:31.096Z,3.10
2019-02-08T04:48:00.170Z,3.00
2019-02-08T04:50:29.806Z,3.00
2019-02-08T04:52:59.492Z,3.00
2019-02-08T04:55:28.979Z,3.00
2019-02-08T04:57:59.127Z,3.00
2019-02-08T05:00:33.635Z,3.10
2019-02-08T05:03:04.973Z,3.10
2019-02-08T05:08:10.798Z,3.10
2019-02-08T05:10:39.573Z,3.10
2019-02-08T05:13:08.297Z,3.10
2019-02-08T05:15:37.040Z,3.00
2019-02-08T05:18:05.736Z,3.10
2019-02-08T05:20:34.456Z,3.10
2019-02-08T05:23:03.192Z,3.20
2019-02-08T05:25:31.894Z,3.20
2019-02-08T05:28:00.779Z,3.20
2019-02-08T05:30:34.773Z,3.20
2019-02-08T05:33:04.577Z,3.10
2019-02-08T05:35:33.375Z,3.10
2019-02-08T05:38:02.105Z,3.10
2019-02-08T05:40:30.756Z,3.10
2019-02-08T05:42:59.704Z,3.20
2019-02-08T05:45:28.842Z,3.30
2019-02-08T05:47:57.595Z,3.20
2019-02-08T05:50:27.841Z,3.30
2019-02-08T05:52:56.564Z,3.30
2019-02-08T05:55:28.455Z,3.40
2019-02-08T05:57:57.323Z,3.30
2019-02-08T06:00:38.721Z,3.40
2019-02-08T06:03:14.295Z,3.30
2019-02-08T06:05:42.980Z,3.30
2019-02-08T06:08:11.885Z,3.30
2019-02-08T06:10:40.586Z,3.20
2019-02-08T06:13:10.147Z,3.20
2019-02-08T06:15:39.763Z,3.20
2019-02-08T06:18:09.670Z,3.30
2019-02-08T06:20:38.895Z,3.30
2019-02-08T06:23:08.097Z,3.30
2019-02-08T06:25:36.803Z,3.30
2019-02-08T06:28:06.533Z,3.30
2019-02-08T06:30:35.338Z,3.30
2019-02-08T06:33:04.566Z,3.30
2019-02-08T06:35:33.585Z,3.30
2019-02-08T06:38:02.401Z,3.30
2019-02-08T06:40:39.880Z,3.30
2019-02-08T06:43:11.771Z,3.30
2019-02-08T06:45:47.809Z,3.30
2019-02-08T06:48:16.751Z,3.30
2019-02-08T06:50:45.955Z,3.30
2019-02-08T06:53:14.655Z,3.30
2019-02-08T06:55:43.419Z,3.20
2019-02-08T06:58:26.192Z,3.20
2019-02-08T07:01:18.513Z,3.30
2019-02-08T07:03:48.859Z,3.30
2019-02-08T07:06:19.198Z,3.40
2019-02-08T07:08:52.476Z,3.40
2019-02-08T07:11:39.535Z,3.40
2019-02-08T07:14:10.268Z,3.50
2019-02-08T07:16:46.356Z,3.50
2019-02-08T07:19:28.596Z,3.50
2019-02-08T07:22:02.396Z,3.50
2019-02-08T07:24:44.951Z,3.60
2019-02-08T07:27:21.036Z,3.60
2019-02-08T07:30:08.606Z,3.60
2019-02-08T07:32:39.166Z,3.70
2019-02-08T07:35:24.007Z,3.80
2019-02-08T07:38:06.596Z,3.80
2019-02-08T07:40:42.402Z,3.80
2019-02-08T07:43:29.371Z,3.80
2019-02-08T07:46:17.552Z,3.80
2019-02-08T07:48:47.886Z,3.80
2019-02-08T07:51:36.292Z,3.80
2019-02-08T07:54:18.822Z,3.80
2019-02-08T07:56:55.928Z,3.90
2019-02-08T07:59:42.961Z,3.90
2019-02-08T08:02:29.700Z,3.90
2019-02-08T08:05:18.541Z,3.90
2019-02-08T08:07:58.178Z,3.90
2019-02-08T08:10:43.786Z,3.90
2019-02-08T08:13:14.565Z,3.90
2019-02-08T08:16:01.251Z,3.90
2019-02-08T08:18:48.249Z,4.00
2019-02-08T08:21:35.673Z,4.00
2019-02-08T08:24:11.946Z,4.00
2019-02-08T08:26:43.217Z,4.00
2019-02-08T08:29:13.558Z,4.00
2019-02-08T08:31:51.385Z,4.10
2019-02-08T08:34:23.198Z,4.10
2019-02-08T08:37:28.279Z,4.10
2019-02-08T08:40:27.238Z,4.20
2019-02-08T08:43:27.821Z,4.20
2019-02-08T08:46:11.028Z,4.20
2019-02-08T08:49:15.892Z,4.20
2019-02-08T08:51:58.823Z,4.30
2019-02-08T08:54:51.662Z,4.30
2019-02-08T08:57:32.294Z,4.30
2019-02-08T09:00:16.302Z,4.40
2019-02-08T09:03:02.975Z,4.40
2019-02-08T09:06:08.642Z,4.40
2019-02-08T09:08:54.303Z,4.40
2019-02-08T09:11:41.020Z,4.40
2019-02-08T09:14:23.400Z,4.40
2019-02-08T09:17:07.121Z,4.40
2019-02-08T09:19:44.455Z,4.30
2019-02-08T09:22:27.965Z,4.30
2019-02-08T09:25:24.828Z,4.30
2019-02-08T09:27:59.876Z,4.40
2019-02-08T09:30:56.959Z,4.40
2019-02-08T09:33:40.673Z,4.40
2019-02-08T09:36:32.290Z,4.40
2019-02-08T09:39:16.484Z,4.50
2019-02-08T09:42:05.902Z,4.50
2019-02-08T09:44:59.390Z,4.50
2019-02-08T09:47:33.853Z,4.60
2019-02-08T09:50:15.931Z,4.60
2019-02-08T09:52:57.176Z,4.60
2019-02-08T09:55:59.829Z,4.60
2019-02-08T09:58:36.864Z,4.60
2019-02-08T10:01:24.948Z,4.60
2019-02-08T10:03:59.660Z,4.60
2019-02-08T10:06:46.945Z,4.60
2019-02-08T10:09:32.145Z,4.50
2019-02-08T10:12:26.897Z,4.60
2019-02-08T10:15:18.636Z,4.60
2019-02-08T10:18:18.604Z,4.60
2019-02-08T10:21:11.095Z,4.60
2019-02-08T10:23:59.074Z,4.60
2019-02-08T10:26:49.060Z,4.70
2019-02-08T10:29:40.823Z,4.70
2019-02-08T10:32:27.798Z,4.70
2019-02-08T10:35:14.270Z,4.70
2019-02-08T10:38:02.305Z,4.70
2019-02-08T10:40:37.860Z,4.70
2019-02-08T10:43:13.174Z,4.70
2019-02-08T10:46:02.943Z,4.70
2019-02-08T10:48:40.846Z,4.70
2019-02-08T10:51:32.380Z,4.70
2019-02-08T10:57:34.916Z,4.70
2019-02-08T11:00:38.284Z,4.70
2019-02-08T11:03:26.642Z,4.70
2019-02-08T11:06:20.896Z,4.70
2019-02-08T11:09:15.469Z,4.70
2019-02-08T11:12:11.524Z,4.70
2019-02-08T11:15:10.199Z,4.80
2019-02-08T11:18:15.250Z,4.90
2019-02-08T11:20:44.196Z,4.90
2019-02-08T11:23:12.871Z,4.90
2019-02-08T11:25:43.600Z,4.90
2019-02-08T11:28:15.389Z,5.00
2019-02-08T11:30:44.085Z,5.10
2019-02-08T11:33:14.375Z,5.10
2019-02-08T11:35:43.138Z,5.10
2019-02-08T11:38:11.841Z,5.10
2019-02-08T11:40:40.619Z,5.10
2019-02-08T11:43:09.513Z,5.10
2019-02-08T11:45:45.170Z,5.10
2019-02-08T11:48:13.259Z,5.10
2019-02-08T11:50:42.462Z,5.20
2019-02-08T11:53:14.123Z,5.20
2019-02-08T11:55:48.026Z,5.30
2019-02-08T11:58:17.532Z,5.30
2019-02-08T12:00:47.881Z,5.40
2019-02-08T12:03:16.680Z,5.30
2019-02-08T12:05:45.548Z,5.40
2019-02-08T12:08:16.455Z,5.40
2019-02-08T12:10:45.165Z,5.40
2019-02-08T12:13:13.841Z,5.40
2019-02-08T12:15:42.566Z,5.50
2019-02-08T12:18:11.302Z,5.50
2019-02-08T12:20:40.016Z,5.60
2019-02-08T12:23:09.138Z,5.50
2019-02-08T12:25:42.305Z,5.50
2019-02-08T12:28:11.317Z,5.50
2019-02-08T12:30:44.894Z,5.50
2019-02-08T12:33:15.077Z,5.50
2019-02-08T12:35:44.315Z,5.50
2019-02-08T12:38:13.037Z,5.50
2019-02-08T12:40:41.891Z,5.50
2019-02-08T12:43:10.716Z,5.50
2019-02-08T12:45:40.285Z,5.50
2019-02-08T12:48:08.959Z,5.60
2019-02-08T12:50:38.599Z,5.60
2019-02-08T12:53:07.536Z,5.50
2019-02-08T12:55:36.233Z,5.60
2019-02-08T12:58:05.045Z,5.60
2019-02-08T13:00:34.183Z,5.50
2019-02-08T13:03:02.877Z,5.50
2019-02-08T13:05:33.155Z,5.50
2019-02-08T13:08:05.161Z,5.50
2019-02-08T13:10:35.621Z,5.50
2019-02-08T13:13:04.438Z,5.50
2019-02-08T13:15:33.214Z,5.50
2019-02-08T13:18:01.850Z,5.50
2019-02-08T13:20:33.657Z,5.50
2019-02-08T13:23:02.372Z,5.50
2019-02-08T13:25:37.186Z,5.50
2019-02-08T13:28:06.354Z,5.50
2019-02-08T13:30:36.231Z,5.60
2019-02-08T13:33:10.828Z,5.60
2019-02-08T13:35:39.565Z,5.70
2019-02-08T13:38:08.287Z,5.70
2019-02-08T13:40:38.622Z,5.70
2019-02-08T13:43:07.444Z,5.70
2019-02-08T13:45:38.961Z,5.70
2019-02-08T13:48:08.032Z,5.70
2019-02-08T13:50:36.995Z,5.80
2019-02-08T13:53:05.808Z,5.70
2019-02-08T13:55:34.630Z,5.70
2019-02-08T13:58:03.476Z,5.80
2019-02-08T14:00:40.423Z,5.80
2019-02-08T14:03:09.530Z,5.80
2019-02-08T14:05:38.313Z,5.80
2019-02-08T14:08:07.246Z,5.80
2019-02-08T14:10:35.977Z,5.80
2019-02-08T14:13:05.388Z,5.90
2019-02-08T14:15:34.687Z,5.90
2019-02-08T14:18:10.564Z,5.90
2019-02-08T14:20:39.366Z,6.00
2019-02-08T14:23:08.598Z,6.10
2019-02-08T14:25:40.379Z,6.10
2019-02-08T14:28:09.367Z,6.10
2019-02-08T14:30:43.125Z,6.10
2019-02-08T14:33:12.288Z,6.10
2019-02-08T14:35:41.224Z,6.10
2019-02-08T14:38:20.157Z,6.10
2019-02-08T14:40:51.394Z,6.20
2019-02-08T14:43:20.149Z,6.20
2019-02-08T14:45:49.283Z,6.10
2019-02-08T14:48:20.670Z,6.20
2019-02-08T14:50:54.325Z,6.20
2019-02-08T14:53:30.735Z,6.20
2019-02-08T14:55:59.645Z,6.20
2019-02-08T14:58:31.185Z,6.20
2019-02-08T15:01:01.703Z,6.20
2019-02-08T15:03:30.589Z,6.20
2019-02-08T15:05:59.577Z,6.30
2019-02-08T15:11:18.658Z,6.20
2019-02-08T15:13:47.650Z,6.30
2019-02-08T15:16:19.366Z,6.20
2019-02-08T15:18:48.224Z,6.20
2019-02-08T15:21:17.127Z,6.20
2019-02-08T15:23:47.806Z,6.20
2019-02-08T15:26:18.648Z,6.30
2019-02-08T15:28:47.330Z,6.30
2019-02-08T15:31:16.061Z,6.30
2019-02-08T15:33:45.127Z,6.20
2019-02-08T15:36:13.793Z,6.20
2019-02-08T15:38:47.586Z,6.30
2019-02-08T15:41:20.379Z,6.30
2019-02-08T15:43:51.218Z,6.20
2019-02-08T15:46:19.923Z,6.20
2019-02-08T15:48:48.925Z,6.20
2019-02-08T15:51:17.630Z,6.20
2019-02-08T15:53:46.337Z,6.20
2019-02-08T15:56:22.584Z,6.20
2019-02-08T15:58:55.921Z,6.20
2019-02-08T16:01:24.843Z,6.30
2019-02-08T16:03:56.010Z,6.30
2019-02-08T16:06:26.367Z,6.20
2019-02-08T16:08:55.340Z,6.30
2019-02-08T16:11:28.421Z,6.30
2019-02-08T16:13:58.955Z,6.30
2019-02-08T16:16:27.850Z,6.30
2019-02-08T16:18:56.891Z,6.30
2019-02-08T16:21:25.843Z,6.30
2019-02-08T16:23:58.786Z,6.40
2019-02-08T16:26:33.829Z,6.30
2019-02-08T16:29:02.839Z,6.40
2019-02-08T16:31:31.565Z,6.40
2019-02-08T16:34:00.597Z,6.40
2019-02-08T16:36:32.852Z,6.40
2019-02-08T16:39:04.848Z,6.50
2019-02-08T16:41:36.723Z,6.40
2019-02-08T16:44:07.961Z,6.40
2019-02-08T16:46:39.347Z,6.50
2019-02-08T16:49:14.024Z,6.50
2019-02-08T16:51:43.433Z,6.50
2019-02-08T16:54:17.193Z,6.50
2019-02-08T16:56:47.261Z,6.50
2019-02-08T16:59:17.541Z,6.50
2019-02-08T17:01:46.290Z,6.50
2019-02-08T17:04:18.328Z,6.50
2019-02-08T17:06:47.379Z,6.50
2019-02-08T17:09:20.243Z,6.50
2019-02-08T17:11:52.638Z,6.50
2019-02-08T17:14:24.406Z,6.50
2019-02-08T17:16:56.057Z,6.50
2019-02-08T17:19:24.770Z,6.50
2019-02-08T17:21:53.909Z,6.60
2019-02-08T17:24:24.820Z,6.60
2019-02-08T17:26:53.713Z,6.60
2019-02-08T17:29:24.074Z,6.60
2019-02-08T17:31:52.910Z,6.60
2019-02-08T17:34:21.602Z,6.60
2019-02-08T17:36:54.966Z,6.60
2019-02-08T17:39:24.074Z,6.70
2019-02-08T17:41:55.887Z,6.70
2019-02-08T17:44:24.663Z,6.60
2019-02-08T17:46:57.478Z,6.70
2019-02-08T17:49:27.203Z,6.60
2019-02-08T17:51:56.154Z,6.60
2019-02-08T17:54:25.898Z,6.60
2019-02-08T17:56:55.282Z,6.60
2019-02-08T17:59:25.832Z,6.60
2019-02-08T18:01:57.876Z,6.60
2019-02-08T18:04:26.744Z,6.60
2019-02-08T18:06:55.642Z,6.60
2019-02-08T18:09:24.724Z,6.60
2019-02-08T18:11:53.727Z,6.60
2019-02-08T18:14:22.368Z,6.60
2019-02-08T18:16:51.255Z,6.60
2019-02-08T18:19:24.034Z,6.60
2019-02-08T18:21:54.102Z,6.60
2019-02-08T18:24:26.799Z,6.60
2019-02-08T18:26:56.835Z,6.50
2019-02-08T18:29:25.678Z,6.60
2019-02-08T18:31:54.422Z,6.70
2019-02-08T18:34:23.259Z,6.60
2019-02-08T18:36:53.791Z,6.60
2019-02-08T18:39:25.306Z,6.70
2019-02-08T18:41:59.909Z,6.70
2019-02-08T18:44:31.297Z,6.70
2019-02-08T18:47:00.210Z,6.70
2019-02-08T18:49:28.781Z,6.70
2019-02-08T18:51:57.679Z,6.70
2019-02-08T18:54:26.455Z,6.80
2019-02-08T18:57:01.235Z,6.80
2019-02-08T18:59:32.197Z,6.80
2019-02-08T19:02:02.119Z,6.80
2019-02-08T19:04:32.849Z,6.80
2019-02-08T19:07:04.527Z,6.80
2019-02-08T19:09:37.256Z,6.80
2019-02-08T19:12:07.881Z,6.80
2019-02-08T19:14:37.365Z,6.80
2019-02-08T19:17:06.050Z,6.80
2019-02-08T19:19:35.178Z,6.70
2019-02-08T19:22:04.164Z,6.80
2019-02-08T19:24:34.744Z,6.80
2019-02-08T19:27:03.669Z,6.70
2019-02-08T19:29:36.171Z,6.70
2019-02-08T19:32:07.717Z,6.70
2019-02-08T19:34:36.363Z,6.80
2019-02-08T19:37:12.611Z,6.70
2019-02-08T19:39:41.319Z,6.70
2019-02-08T19:42:13.302Z,6.70
2019-02-08T19:44:42.030Z,6.70
2019-02-08T19:47:11.307Z,6.70
2019-02-08T19:49:40.264Z,6.70
2019-02-08T19:52:10.479Z,6.70
2019-02-08T19:54:39.170Z,6.70
2019-02-08T19:57:09.345Z,6.70
2019-02-08T19:59:40.936Z,6.70
2019-02-08T20:02:09.843Z,6.70
2019-02-08T20:04:38.481Z,6.60
2019-02-08T20:07:10.365Z,6.60
2019-02-08T20:09:40.055Z,6.60
2019-02-08T20:12:10.646Z,6.60
2019-02-08T20:14:39.468Z,6.60
2019-02-08T20:17:08.792Z,6.60
2019-02-08T20:19:39.076Z,6.60
2019-02-08T20:22:10.907Z,6.60
2019-02-08T20:24:40.675Z,6.60
2019-02-08T20:27:09.848Z,6.60
2019-02-08T20:29:40.981Z,6.50
2019-02-08T20:32:22.940Z,6.60
2019-02-08T20:35:01.080Z,6.60
2019-02-08T20:37:34.436Z,6.60
2019-02-08T20:40:03.518Z,6.60
2019-02-08T20:42:33.849Z,6.60
2019-02-08T20:45:02.892Z,6.70
2019-02-08T20:47:40.626Z,6.70
2019-02-08T20:50:09.440Z,6.70
2019-02-08T20:52:38.303Z,6.70
2019-02-08T20:55:10.234Z,6.70
2019-02-08T20:57:41.078Z,6.70
2019-02-08T21:00:33.257Z,6.70
2019-02-08T21:03:03.493Z,6.60
2019-02-08T21:05:36.220Z,6.60
2019-02-08T21:08:16.631Z,6.70
2019-02-08T21:10:47.994Z,6.70
2019-02-08T21:13:17.640Z,6.70
2019-02-08T21:15:48.575Z,6.60
2019-02-08T21:18:17.070Z,6.60
2019-02-08T21:20:50.627Z,6.60
2019-02-08T21:23:20.570Z,6.60
2019-02-08T21:25:51.729Z,6.70
2019-02-08T21:28:23.161Z,6.60
2019-02-08T21:30:51.840Z,6.60
2019-02-08T21:33:20.687Z,6.60
2019-02-08T21:35:49.659Z,6.50
2019-02-08T21:38:18.665Z,6.60
2019-02-08T21:40:47.369Z,6.50
2019-02-08T21:43:16.224Z,6.50
2019-02-08T21:45:47.653Z,6.50
2019-02-08T21:48:16.284Z,6.50
2019-02-08T21:50:45.230Z,6.50
2019-02-08T21:53:14.025Z,6.50
2019-02-08T21:55:43.518Z,6.50
2019-02-08T21:58:14.619Z,6.50
2019-02-08T22:00:45.117Z,6.50
2019-02-08T22:03:25.039Z,6.50
2019-02-08T22:05:56.655Z,6.50
2019-02-08T22:08:25.393Z,6.50
2019-02-08T22:10:59.723Z,6.60
2019-02-08T22:13:28.427Z,6.60
2019-02-08T22:15:58.659Z,6.60
2019-02-08T22:18:31.335Z,6.50
2019-02-08T22:20:59.992Z,6.50
2019-02-08T22:23:29.293Z,6.50
2019-02-08T22:25:59.797Z,6.50
2019-02-08T22:28:28.434Z,6.50
2019-02-08T22:30:57.161Z,6.50
2019-02-08T22:33:27.606Z,6.50
2019-02-08T22:35:57.888Z,6.50
2019-02-08T22:38:26.658Z,6.50
2019-02-08T22:40:55.437Z,6.50
2019-02-08T22:43:24.343Z,6.50
2019-02-08T22:45:54.735Z,6.50
2019-02-08T22:48:23.386Z,6.50
2019-02-08T22:50:52.291Z,6.50
2019-02-08T22:53:21.031Z,6.50
2019-02-08T22:55:50.105Z,6.50
2019-02-08T22:58:19.048Z,6.60
2019-02-08T23:01:02.211Z,6.50
2019-02-08T23:03:31.136Z,6.60
2019-02-08T23:06:00.718Z,6.60
2019-02-08T23:08:29.555Z,6.60
2019-02-08T23:10:58.856Z,6.50
2019-02-08T23:13:30.206Z,6.50
2019-02-08T23:16:04.658Z,6.50
2019-02-08T23:18:37.799Z,6.60
2019-02-08T23:21:08.026Z,6.60
2019-02-08T23:23:37.078Z,6.60
2019-02-08T23:26:07.568Z,6.60
2019-02-08T23:28:36.300Z,6.60
2019-02-08T23:31:09.348Z,6.60
2019-02-08T23:33:42.438Z,6.60
2019-02-08T23:36:18.838Z,6.60
2019-02-08T23:38:47.264Z,6.70
2019-02-08T23:41:15.897Z,6.70
2019-02-08T23:43:44.823Z,6.70
2019-02-08T23:46:13.719Z,6.70
2019-02-08T23:48:43.059Z,6.70
2019-02-08T23:51:12.156Z,6.70
2019-02-08T23:53:40.907Z,6.70
2019-02-08T23:56:09.722Z,6.70
2019-02-08T23:58:38.470Z,6.70
